sensor_id;sensor_type;location;lat;lon;timestamp;temperature;humidity
10070;DHT22;5074;53.720;10.014;2022-12-10T00:01:39;0.00;99.90
10070;DHT22;5074;53.720;10.014;2022-12-10T00:04:09;0.00;99.90
10070;DHT22;5074;53.720;10.014;2022-12-10T00:06:38;0.00;99.90
10070;DHT22;5074;53.720;10.014;2022-12-10T00:09:09;0.00;99.90
10070;DHT22;5074;53.720;10.014;2022-12-10T00:11:39;0.00;99.90
10070;DHT22;5074;53.720;10.014;2022-12-10T00:14:07;0.00;99.90
10070;DHT22;5074;53.720;10.014;2022-12-10T00:16:35;0.00;99.90
10070;DHT22;5074;53.720;10.014;2022-12-10T00:19:04;0.00;99.90
10070;DHT22;5074;53.720;10.014;2022-12-10T00:21:34;0.00;99.90
10070;DHT22;5074;53.720;10.014;2022-12-10T00:24:03;0.00;99.90
10070;DHT22;5074;53.720;10.014;2022-12-10T00:26:34;0.00;99.90
10070;DHT22;5074;53.720;10.014;2022-12-10T00:29:04;-0.10;99.90
10070;DHT22;5074;53.720;10.014;2022-12-10T00:31:34;0.00;99.90
10070;DHT22;5074;53.720;10.014;2022-12-10T00:34:05;-0.10;99.90
10070;DHT22;5074;53.720;10.014;2022-12-10T00:36:35;0.00;99.90
10070;DHT22;5074;53.720;10.014;2022-12-10T00:39:04;-0.10;99.90
10070;DHT22;5074;53.720;10.014;2022-12-10T00:41:34;-0.10;99.90
10070;DHT22;5074;53.720;10.014;2022-12-10T00:44:02;0.00;99.90
10070;DHT22;5074;53.720;10.014;2022-12-10T00:46:31;-0.10;99.90
10070;DHT22;5074;53.720;10.014;2022-12-10T00:48:59;-0.10;99.90
10070;DHT22;5074;53.720;10.014;2022-12-10T00:51:27;-0.10;99.90
10070;DHT22;5074;53.720;10.014;2022-12-10T00:53:56;-0.10;99.90
10070;DHT22;5074;53.720;10.014;2022-12-10T00:56:26;-0.10;99.90
10070;DHT22;5074;53.720;10.014;2022-12-10T00:58:57;-0.10;99.90
10070;DHT22;5074;53.720;10.014;2022-12-10T01:01:26;-0.10;99.90
10070;DHT22;5074;53.720;10.014;2022-12-10T01:03:55;-0.10;99.90
10070;DHT22;5074;53.720;10.014;2022-12-10T01:06:27;-0.10;99.90
10070;DHT22;5074;53.720;10.014;2022-12-10T01:08:57;-0.10;99.90
10070;DHT22;5074;53.720;10.014;2022-12-10T01:11:28;-0.10;99.90
10070;DHT22;5074;53.720;10.014;2022-12-10T01:13:58;-0.10;99.90
10070;DHT22;5074;53.720;10.014;2022-12-10T01:16:27;-0.10;99.90
10070;DHT22;5074;53.720;10.014;2022-12-10T01:18:55;-0.10;99.90
10070;DHT22;5074;53.720;10.014;2022-12-10T01:21:25;-0.10;99.90
10070;DHT22;5074;53.720;10.014;2022-12-10T01:23:55;-0.10;99.90
10070;DHT22;5074;53.720;10.014;2022-12-10T01:26:24;-0.10;99.90
10070;DHT22;5074;53.720;10.014;2022-12-10T01:28:54;0.00;99.90
10070;DHT22;5074;53.720;10.014;2022-12-10T01:31:25;-0.10;99.90
10070;DHT22;5074;53.720;10.014;2022-12-10T01:33:55;-0.10;99.90
10070;DHT22;5074;53.720;10.014;2022-12-10T01:36:25;-0.10;99.90
10070;DHT22;5074;53.720;10.014;2022-12-10T01:38:55;0.00;99.90
10070;DHT22;5074;53.720;10.014;2022-12-10T01:41:24;-0.10;99.90
10070;DHT22;5074;53.720;10.014;2022-12-10T01:43:55;0.00;99.90
10070;DHT22;5074;53.720;10.014;2022-12-10T01:46:27;-0.10;99.90
10070;DHT22;5074;53.720;10.014;2022-12-10T01:48:56;-0.10;99.90
10070;DHT22;5074;53.720;10.014;2022-12-10T01:51:26;-0.10;99.90
10070;DHT22;5074;53.720;10.014;2022-12-10T01:53:55;-0.10;99.90
10070;DHT22;5074;53.720;10.014;2022-12-10T01:56:24;-0.10;99.90
10070;DHT22;5074;53.720;10.014;2022-12-10T01:58:53;-0.10;99.90
10070;DHT22;5074;53.720;10.014;2022-12-10T02:01:27;0.00;99.90
10070;DHT22;5074;53.720;10.014;2022-12-10T02:04:03;0.00;99.90
10070;DHT22;5074;53.720;10.014;2022-12-10T02:06:44;-0.10;99.90
10070;DHT22;5074;53.720;10.014;2022-12-10T02:09:20;-0.10;99.90
10070;DHT22;5074;53.720;10.014;2022-12-10T02:11:59;0.00;99.90
10070;DHT22;5074;53.720;10.014;2022-12-10T02:14:36;-0.10;99.90
10070;DHT22;5074;53.720;10.014;2022-12-10T02:17:13;-0.10;99.90
10070;DHT22;5074;53.720;10.014;2022-12-10T02:19:50;-0.10;99.90
10070;DHT22;5074;53.720;10.014;2022-12-10T02:22:25;-0.10;99.90
10070;DHT22;5074;53.720;10.014;2022-12-10T02:24:56;-0.10;99.90
10070;DHT22;5074;53.720;10.014;2022-12-10T02:27:28;-0.10;99.90
10070;DHT22;5074;53.720;10.014;2022-12-10T02:30:02;-0.10;99.90
10070;DHT22;5074;53.720;10.014;2022-12-10T02:32:32;-0.10;99.90
10070;DHT22;5074;53.720;10.014;2022-12-10T02:35:05;-0.10;99.90
10070;DHT22;5074;53.720;10.014;2022-12-10T02:37:38;-0.10;99.90
10070;DHT22;5074;53.720;10.014;2022-12-10T02:40:13;-0.10;99.90
10070;DHT22;5074;53.720;10.014;2022-12-10T02:42:45;-0.20;99.90
10070;DHT22;5074;53.720;10.014;2022-12-10T02:45:18;-0.20;99.90
10070;DHT22;5074;53.720;10.014;2022-12-10T02:47:49;-0.20;99.90
10070;DHT22;5074;53.720;10.014;2022-12-10T02:50:18;-0.20;99.90
10070;DHT22;5074;53.720;10.014;2022-12-10T02:52:48;-0.20;99.90
10070;DHT22;5074;53.720;10.014;2022-12-10T02:55:17;-0.20;99.90
10070;DHT22;5074;53.720;10.014;2022-12-10T02:57:50;-0.20;99.90
10070;DHT22;5074;53.720;10.014;2022-12-10T03:00:32;-0.20;99.90
10070;DHT22;5074;53.720;10.014;2022-12-10T03:03:14;-0.20;99.90
10070;DHT22;5074;53.720;10.014;2022-12-10T03:05:51;-0.10;99.90
10070;DHT22;5074;53.720;10.014;2022-12-10T03:08:27;-0.10;99.90
10070;DHT22;5074;53.720;10.014;2022-12-10T03:10:59;-0.10;99.90
10070;DHT22;5074;53.720;10.014;2022-12-10T03:13:35;-0.10;99.90
10070;DHT22;5074;53.720;10.014;2022-12-10T03:16:09;-0.10;99.90
10070;DHT22;5074;53.720;10.014;2022-12-10T03:18:38;-0.10;99.90
10070;DHT22;5074;53.720;10.014;2022-12-10T03:21:07;-0.10;99.90
10070;DHT22;5074;53.720;10.014;2022-12-10T03:23:37;-0.10;99.90
10070;DHT22;5074;53.720;10.014;2022-12-10T03:26:08;-0.10;99.90
10070;DHT22;5074;53.720;10.014;2022-12-10T03:28:38;-0.10;99.90
10070;DHT22;5074;53.720;10.014;2022-12-10T03:31:10;-0.10;99.90
10070;DHT22;5074;53.720;10.014;2022-12-10T03:33:41;-0.10;99.90
10070;DHT22;5074;53.720;10.014;2022-12-10T03:36:10;-0.20;99.90
10070;DHT22;5074;53.720;10.014;2022-12-10T03:38:39;-0.10;99.90
10070;DHT22;5074;53.720;10.014;2022-12-10T03:41:08;-0.10;99.90
10070;DHT22;5074;53.720;10.014;2022-12-10T03:43:48;-0.10;99.90
10070;DHT22;5074;53.720;10.014;2022-12-10T03:46:18;-0.10;99.90
10070;DHT22;5074;53.720;10.014;2022-12-10T03:48:47;-0.10;99.90
10070;DHT22;5074;53.720;10.014;2022-12-10T03:51:15;-0.10;99.90
10070;DHT22;5074;53.720;10.014;2022-12-10T03:53:43;-0.10;99.90
10070;DHT22;5074;53.720;10.014;2022-12-10T03:56:11;-0.10;99.90
10070;DHT22;5074;53.720;10.014;2022-12-10T03:58:39;-0.10;99.90
10070;DHT22;5074;53.720;10.014;2022-12-10T04:01:07;-0.10;99.90
10070;DHT22;5074;53.720;10.014;2022-12-10T04:03:37;-0.10;99.90
10070;DHT22;5074;53.720;10.014;2022-12-10T04:06:10;-0.10;99.90
10070;DHT22;5074;53.720;10.014;2022-12-10T04:08:40;-0.10;99.90
10070;DHT22;5074;53.720;10.014;2022-12-10T04:11:08;-0.10;99.90
10070;DHT22;5074;53.720;10.014;2022-12-10T04:13:38;-0.10;99.90
10070;DHT22;5074;53.720;10.014;2022-12-10T04:16:24;-0.20;99.90
10070;DHT22;5074;53.720;10.014;2022-12-10T04:18:57;-0.10;99.90
10070;DHT22;5074;53.720;10.014;2022-12-10T04:21:27;-0.20;99.90
10070;DHT22;5074;53.720;10.014;2022-12-10T04:24:15;-0.10;99.90
10070;DHT22;5074;53.720;10.014;2022-12-10T04:27:03;-0.10;99.90
10070;DHT22;5074;53.720;10.014;2022-12-10T04:29:34;-0.10;99.90
10070;DHT22;5074;53.720;10.014;2022-12-10T04:32:02;-0.10;99.90
10070;DHT22;5074;53.720;10.014;2022-12-10T04:34:32;-0.10;99.90
10070;DHT22;5074;53.720;10.014;2022-12-10T04:37:00;-0.10;99.90
10070;DHT22;5074;53.720;10.014;2022-12-10T04:39:29;-0.10;99.90
10070;DHT22;5074;53.720;10.014;2022-12-10T04:41:58;-0.10;99.90
10070;DHT22;5074;53.720;10.014;2022-12-10T04:44:27;-0.10;99.90
10070;DHT22;5074;53.720;10.014;2022-12-10T04:46:55;-0.10;99.90
10070;DHT22;5074;53.720;10.014;2022-12-10T04:49:23;-0.10;99.90
10070;DHT22;5074;53.720;10.014;2022-12-10T04:51:52;-0.10;99.90
10070;DHT22;5074;53.720;10.014;2022-12-10T04:54:22;-0.20;99.90
10070;DHT22;5074;53.720;10.014;2022-12-10T04:56:51;-0.10;99.90
10070;DHT22;5074;53.720;10.014;2022-12-10T04:59:19;-0.10;99.90
10070;DHT22;5074;53.720;10.014;2022-12-10T05:01:47;-0.20;99.90
10070;DHT22;5074;53.720;10.014;2022-12-10T05:04:16;-0.20;99.90
10070;DHT22;5074;53.720;10.014;2022-12-10T05:06:47;-0.20;99.90
10070;DHT22;5074;53.720;10.014;2022-12-10T05:09:18;-0.30;99.90
10070;DHT22;5074;53.720;10.014;2022-12-10T05:11:46;-0.30;99.90
10070;DHT22;5074;53.720;10.014;2022-12-10T05:14:14;-0.30;99.90
10070;DHT22;5074;53.720;10.014;2022-12-10T05:16:42;-0.30;99.90
10070;DHT22;5074;53.720;10.014;2022-12-10T05:19:11;-0.30;99.90
10070;DHT22;5074;53.720;10.014;2022-12-10T05:21:39;-0.30;99.90
10070;DHT22;5074;53.720;10.014;2022-12-10T05:24:26;-0.30;99.90
10070;DHT22;5074;53.720;10.014;2022-12-10T05:26:54;-0.20;99.90
10070;DHT22;5074;53.720;10.014;2022-12-10T05:29:24;-0.30;99.90
10070;DHT22;5074;53.720;10.014;2022-12-10T05:31:51;-0.30;99.90
10070;DHT22;5074;53.720;10.014;2022-12-10T05:34:19;-0.20;99.90
10070;DHT22;5074;53.720;10.014;2022-12-10T05:36:47;-0.30;99.90
10070;DHT22;5074;53.720;10.014;2022-12-10T05:39:16;-0.20;99.90
10070;DHT22;5074;53.720;10.014;2022-12-10T05:41:45;-0.30;99.90
10070;DHT22;5074;53.720;10.014;2022-12-10T05:44:13;-0.30;99.90
10070;DHT22;5074;53.720;10.014;2022-12-10T05:46:41;-0.40;99.90
10070;DHT22;5074;53.720;10.014;2022-12-10T05:49:09;-0.40;99.90
10070;DHT22;5074;53.720;10.014;2022-12-10T05:51:37;-0.40;99.90
10070;DHT22;5074;53.720;10.014;2022-12-10T05:54:06;-0.50;99.90
10070;DHT22;5074;53.720;10.014;2022-12-10T05:56:35;-0.50;99.90
10070;DHT22;5074;53.720;10.014;2022-12-10T05:59:05;-0.50;99.90
10070;DHT22;5074;53.720;10.014;2022-12-10T06:01:41;-0.50;99.90
10070;DHT22;5074;53.720;10.014;2022-12-10T06:04:09;-0.50;99.90
10070;DHT22;5074;53.720;10.014;2022-12-10T06:06:38;-0.40;99.90
10070;DHT22;5074;53.720;10.014;2022-12-10T06:09:07;-0.50;99.90
10070;DHT22;5074;53.720;10.014;2022-12-10T06:11:39;-0.50;99.90
10070;DHT22;5074;53.720;10.014;2022-12-10T06:14:09;-0.50;99.90
10070;DHT22;5074;53.720;10.014;2022-12-10T06:16:38;-0.50;99.90
10070;DHT22;5074;53.720;10.014;2022-12-10T06:19:06;-0.50;99.90
10070;DHT22;5074;53.720;10.014;2022-12-10T06:21:34;-0.50;99.90
10070;DHT22;5074;53.720;10.014;2022-12-10T06:24:02;-0.50;99.90
10070;DHT22;5074;53.720;10.014;2022-12-10T06:26:30;-0.50;99.90
10070;DHT22;5074;53.720;10.014;2022-12-10T06:28:58;-0.50;99.90
10070;DHT22;5074;53.720;10.014;2022-12-10T06:31:28;-0.50;99.90
10070;DHT22;5074;53.720;10.014;2022-12-10T06:33:56;-0.50;99.90
10070;DHT22;5074;53.720;10.014;2022-12-10T06:36:24;-0.50;99.90
10070;DHT22;5074;53.720;10.014;2022-12-10T06:38:52;-0.50;99.90
10070;DHT22;5074;53.720;10.014;2022-12-10T06:41:20;-0.60;99.90
10070;DHT22;5074;53.720;10.014;2022-12-10T06:43:48;-0.60;99.90
10070;DHT22;5074;53.720;10.014;2022-12-10T06:46:17;-0.50;99.90
10070;DHT22;5074;53.720;10.014;2022-12-10T06:48:47;-0.60;99.90
10070;DHT22;5074;53.720;10.014;2022-12-10T06:51:16;-0.50;99.90
10070;DHT22;5074;53.720;10.014;2022-12-10T06:53:44;-0.50;99.90
10070;DHT22;5074;53.720;10.014;2022-12-10T06:56:14;-0.60;99.90
10070;DHT22;5074;53.720;10.014;2022-12-10T06:58:43;-0.60;99.90
10070;DHT22;5074;53.720;10.014;2022-12-10T07:01:13;-0.40;99.90
10070;DHT22;5074;53.720;10.014;2022-12-10T07:03:43;0.30;99.90
10070;DHT22;5074;53.720;10.014;2022-12-10T07:06:16;0.20;99.90
10070;DHT22;5074;53.720;10.014;2022-12-10T07:08:45;0.30;99.90
10070;DHT22;5074;53.720;10.014;2022-12-10T07:11:14;1.70;99.90
10070;DHT22;5074;53.720;10.014;2022-12-10T07:13:43;1.30;99.90
10070;DHT22;5074;53.720;10.014;2022-12-10T07:16:12;1.00;99.90
10070;DHT22;5074;53.720;10.014;2022-12-10T07:18:41;2.00;99.90
10070;DHT22;5074;53.720;10.014;2022-12-10T07:21:19;1.80;99.90
10070;DHT22;5074;53.720;10.014;2022-12-10T07:23:48;1.40;99.90
10070;DHT22;5074;53.720;10.014;2022-12-10T07:26:16;1.20;99.90
10070;DHT22;5074;53.720;10.014;2022-12-10T07:28:44;0.70;99.90
10070;DHT22;5074;53.720;10.014;2022-12-10T07:31:19;0.40;99.90
10070;DHT22;5074;53.720;10.014;2022-12-10T07:33:49;0.10;99.90
10070;DHT22;5074;53.720;10.014;2022-12-10T07:36:19;-0.10;99.90
10070;DHT22;5074;53.720;10.014;2022-12-10T07:38:49;-0.30;99.90
10070;DHT22;5074;53.720;10.014;2022-12-10T07:41:18;-0.40;99.90
10070;DHT22;5074;53.720;10.014;2022-12-10T07:43:46;-0.50;99.90
10070;DHT22;5074;53.720;10.014;2022-12-10T07:46:15;-0.50;99.90
10070;DHT22;5074;53.720;10.014;2022-12-10T07:48:45;-0.50;99.90
10070;DHT22;5074;53.720;10.014;2022-12-10T07:51:14;-0.60;99.90
10070;DHT22;5074;53.720;10.014;2022-12-10T07:53:45;-0.60;99.90
10070;DHT22;5074;53.720;10.014;2022-12-10T07:56:13;-0.60;99.90
10070;DHT22;5074;53.720;10.014;2022-12-10T07:58:41;-0.60;99.90
10070;DHT22;5074;53.720;10.014;2022-12-10T08:01:11;-0.50;99.90
10070;DHT22;5074;53.720;10.014;2022-12-10T08:03:42;-0.60;99.90
10070;DHT22;5074;53.720;10.014;2022-12-10T08:06:11;-0.50;99.90
10070;DHT22;5074;53.720;10.014;2022-12-10T08:08:41;-0.60;99.90
10070;DHT22;5074;53.720;10.014;2022-12-10T08:11:12;-0.70;99.90
10070;DHT22;5074;53.720;10.014;2022-12-10T08:13:42;-0.70;99.90
10070;DHT22;5074;53.720;10.014;2022-12-10T08:16:11;-0.70;99.90
10070;DHT22;5074;53.720;10.014;2022-12-10T08:18:41;-0.70;99.90
10070;DHT22;5074;53.720;10.014;2022-12-10T08:21:10;-0.70;99.90
10070;DHT22;5074;53.720;10.014;2022-12-10T08:23:39;-0.70;99.90
10070;DHT22;5074;53.720;10.014;2022-12-10T08:26:09;-0.70;99.90
10070;DHT22;5074;53.720;10.014;2022-12-10T08:28:40;-0.70;99.90
10070;DHT22;5074;53.720;10.014;2022-12-10T08:31:09;-0.70;99.90
10070;DHT22;5074;53.720;10.014;2022-12-10T08:33:39;-0.70;99.90
10070;DHT22;5074;53.720;10.014;2022-12-10T08:36:08;-0.80;99.90
10070;DHT22;5074;53.720;10.014;2022-12-10T08:38:38;-0.80;99.90
10070;DHT22;5074;53.720;10.014;2022-12-10T08:41:06;-0.70;99.90
10070;DHT22;5074;53.720;10.014;2022-12-10T08:43:35;-0.70;99.90
10070;DHT22;5074;53.720;10.014;2022-12-10T08:46:04;-0.80;99.90
10070;DHT22;5074;53.720;10.014;2022-12-10T08:48:33;-0.80;99.90
10070;DHT22;5074;53.720;10.014;2022-12-10T08:51:02;-0.70;99.90
10070;DHT22;5074;53.720;10.014;2022-12-10T08:53:30;-0.70;99.90
10070;DHT22;5074;53.720;10.014;2022-12-10T08:55:58;-0.70;99.90
10070;DHT22;5074;53.720;10.014;2022-12-10T08:58:26;-0.80;99.90
10070;DHT22;5074;53.720;10.014;2022-12-10T09:00:54;-0.80;99.90
10070;DHT22;5074;53.720;10.014;2022-12-10T09:03:24;-0.80;99.90
10070;DHT22;5074;53.720;10.014;2022-12-10T09:05:52;-0.80;99.90
10070;DHT22;5074;53.720;10.014;2022-12-10T09:08:20;-0.80;99.90
10070;DHT22;5074;53.720;10.014;2022-12-10T09:10:48;-0.70;99.90
10070;DHT22;5074;53.720;10.014;2022-12-10T09:13:16;-0.70;99.90
10070;DHT22;5074;53.720;10.014;2022-12-10T09:15:48;-0.60;99.90
10070;DHT22;5074;53.720;10.014;2022-12-10T09:18:18;-0.60;99.90
10070;DHT22;5074;53.720;10.014;2022-12-10T09:20:48;-0.60;99.90
10070;DHT22;5074;53.720;10.014;2022-12-10T09:23:16;-0.60;99.90
10070;DHT22;5074;53.720;10.014;2022-12-10T09:25:44;-0.60;99.90
10070;DHT22;5074;53.720;10.014;2022-12-10T09:28:12;-0.50;99.90
10070;DHT22;5074;53.720;10.014;2022-12-10T09:30:40;-0.50;99.90
10070;DHT22;5074;53.720;10.014;2022-12-10T09:33:08;-0.40;99.90
10070;DHT22;5074;53.720;10.014;2022-12-10T09:35:39;-0.40;99.90
10070;DHT22;5074;53.720;10.014;2022-12-10T09:38:09;-0.50;99.90
10070;DHT22;5074;53.720;10.014;2022-12-10T09:40:39;-0.40;99.90
10070;DHT22;5074;53.720;10.014;2022-12-10T09:43:13;-0.40;99.90
10070;DHT22;5074;53.720;10.014;2022-12-10T09:45:52;-0.40;99.90
10070;DHT22;5074;53.720;10.014;2022-12-10T09:48:32;-0.40;99.90
10070;DHT22;5074;53.720;10.014;2022-12-10T09:51:09;-0.40;99.90
10070;DHT22;5074;53.720;10.014;2022-12-10T09:53:45;-0.40;99.90
10070;DHT22;5074;53.720;10.014;2022-12-10T09:56:23;-0.30;99.90
10070;DHT22;5074;53.720;10.014;2022-12-10T09:58:54;-0.30;99.90
10070;DHT22;5074;53.720;10.014;2022-12-10T10:01:24;-0.30;99.90
10070;DHT22;5074;53.720;10.014;2022-12-10T10:03:56;-0.30;99.90
10070;DHT22;5074;53.720;10.014;2022-12-10T10:06:24;-0.30;99.90
10070;DHT22;5074;53.720;10.014;2022-12-10T10:08:57;-0.40;99.90
10070;DHT22;5074;53.720;10.014;2022-12-10T10:11:29;-0.30;99.90
10070;DHT22;5074;53.720;10.014;2022-12-10T10:13:59;-0.20;99.90
10070;DHT22;5074;53.720;10.014;2022-12-10T10:16:32;-0.30;99.90
10070;DHT22;5074;53.720;10.014;2022-12-10T10:19:03;-0.30;99.90
10070;DHT22;5074;53.720;10.014;2022-12-10T10:21:34;-0.20;99.90
10070;DHT22;5074;53.720;10.014;2022-12-10T10:24:06;-0.30;99.90
10070;DHT22;5074;53.720;10.014;2022-12-10T10:26:39;-0.30;99.90
10070;DHT22;5074;53.720;10.014;2022-12-10T10:29:08;-0.30;99.90
10070;DHT22;5074;53.720;10.014;2022-12-10T10:31:41;-0.20;99.90
10070;DHT22;5074;53.720;10.014;2022-12-10T10:34:12;-0.20;99.90
10070;DHT22;5074;53.720;10.014;2022-12-10T10:36:43;-0.10;99.90
10070;DHT22;5074;53.720;10.014;2022-12-10T10:39:18;-0.20;99.90
10070;DHT22;5074;53.720;10.014;2022-12-10T10:41:54;-0.10;99.90
10070;DHT22;5074;53.720;10.014;2022-12-10T10:44:25;-0.10;99.90
10070;DHT22;5074;53.720;10.014;2022-12-10T10:46:55;-0.10;99.90
10070;DHT22;5074;53.720;10.014;2022-12-10T10:49:24;-0.10;99.90
10070;DHT22;5074;53.720;10.014;2022-12-10T10:51:54;-0.10;99.90
10070;DHT22;5074;53.720;10.014;2022-12-10T10:54:34;-0.10;99.90
10070;DHT22;5074;53.720;10.014;2022-12-10T10:57:10;-0.10;99.90
10070;DHT22;5074;53.720;10.014;2022-12-10T10:59:41;-0.20;99.90
10070;DHT22;5074;53.720;10.014;2022-12-10T11:02:16;-0.10;99.90
10070;DHT22;5074;53.720;10.014;2022-12-10T11:04:48;0.10;99.90
10070;DHT22;5074;53.720;10.014;2022-12-10T11:07:19;0.20;99.90
10070;DHT22;5074;53.720;10.014;2022-12-10T11:09:53;0.30;99.90
10070;DHT22;5074;53.720;10.014;2022-12-10T11:12:29;0.50;99.90
10070;DHT22;5074;53.720;10.014;2022-12-10T11:15:03;0.50;99.90
10070;DHT22;5074;53.720;10.014;2022-12-10T11:17:56;0.60;99.90
10070;DHT22;5074;53.720;10.014;2022-12-10T11:20:26;0.70;99.90
10070;DHT22;5074;53.720;10.014;2022-12-10T11:22:55;0.70;99.90
10070;DHT22;5074;53.720;10.014;2022-12-10T11:25:31;0.70;99.90
10070;DHT22;5074;53.720;10.014;2022-12-10T11:28:14;0.70;99.90
10070;DHT22;5074;53.720;10.014;2022-12-10T11:30:59;0.50;99.90
10070;DHT22;5074;53.720;10.014;2022-12-10T11:33:46;0.50;99.90
10070;DHT22;5074;53.720;10.014;2022-12-10T11:36:24;0.40;99.90
10070;DHT22;5074;53.720;10.014;2022-12-10T11:39:03;0.40;99.90
10070;DHT22;5074;53.720;10.014;2022-12-10T11:41:48;0.30;99.90
10070;DHT22;5074;53.720;10.014;2022-12-10T11:44:21;0.30;99.90
10070;DHT22;5074;53.720;10.014;2022-12-10T11:47:11;0.40;99.90
10070;DHT22;5074;53.720;10.014;2022-12-10T11:49:51;0.40;99.90
10070;DHT22;5074;53.720;10.014;2022-12-10T11:52:36;0.40;99.90
10070;DHT22;5074;53.720;10.014;2022-12-10T11:55:16;0.50;99.90
10070;DHT22;5074;53.720;10.014;2022-12-10T11:57:55;0.50;99.90
10070;DHT22;5074;53.720;10.014;2022-12-10T12:00:39;0.50;99.90
10070;DHT22;5074;53.720;10.014;2022-12-10T12:03:31;0.50;99.90
10070;DHT22;5074;53.720;10.014;2022-12-10T12:06:15;0.70;99.90
10070;DHT22;5074;53.720;10.014;2022-12-10T12:08:51;0.70;99.90
10070;DHT22;5074;53.720;10.014;2022-12-10T12:11:30;0.70;99.90
10070;DHT22;5074;53.720;10.014;2022-12-10T12:14:13;0.70;99.90
10070;DHT22;5074;53.720;10.014;2022-12-10T12:16:47;0.60;99.90
10070;DHT22;5074;53.720;10.014;2022-12-10T12:19:21;0.50;99.90
10070;DHT22;5074;53.720;10.014;2022-12-10T12:21:55;0.50;99.90
10070;DHT22;5074;53.720;10.014;2022-12-10T12:24:25;0.50;99.90
10070;DHT22;5074;53.720;10.014;2022-12-10T12:27:00;0.30;99.90
10070;DHT22;5074;53.720;10.014;2022-12-10T12:29:37;0.30;99.90
10070;DHT22;5074;53.720;10.014;2022-12-10T12:32:11;0.20;99.90
10070;DHT22;5074;53.720;10.014;2022-12-10T12:34:47;0.20;99.90
10070;DHT22;5074;53.720;10.014;2022-12-10T12:37:28;0.20;99.90
10070;DHT22;5074;53.720;10.014;2022-12-10T12:40:03;0.20;99.90
10070;DHT22;5074;53.720;10.014;2022-12-10T12:42:40;0.20;99.90
10070;DHT22;5074;53.720;10.014;2022-12-10T12:45:16;0.20;99.90
10070;DHT22;5074;53.720;10.014;2022-12-10T12:47:48;0.10;99.90
10070;DHT22;5074;53.720;10.014;2022-12-10T12:50:28;0.10;99.90
10070;DHT22;5074;53.720;10.014;2022-12-10T12:53:02;0.00;99.90
10070;DHT22;5074;53.720;10.014;2022-12-10T12:55:37;0.00;99.90
10070;DHT22;5074;53.720;10.014;2022-12-10T12:58:15;0.00;99.90
10070;DHT22;5074;53.720;10.014;2022-12-10T13:00:52;0.10;99.90
10070;DHT22;5074;53.720;10.014;2022-12-10T13:03:27;0.10;99.90
10070;DHT22;5074;53.720;10.014;2022-12-10T13:06:13;0.10;99.90
10070;DHT22;5074;53.720;10.014;2022-12-10T13:08:46;0.00;99.90
10070;DHT22;5074;53.720;10.014;2022-12-10T13:11:17;0.00;99.90
10070;DHT22;5074;53.720;10.014;2022-12-10T13:14:15;-0.10;99.90
10070;DHT22;5074;53.720;10.014;2022-12-10T13:22:57;-0.10;99.90
10070;DHT22;5074;53.720;10.014;2022-12-10T13:25:54;-0.10;99.90
10070;DHT22;5074;53.720;10.014;2022-12-10T13:28:32;-0.10;99.90
10070;DHT22;5074;53.720;10.014;2022-12-10T13:31:20;-0.10;99.90
10070;DHT22;5074;53.720;10.014;2022-12-10T13:34:06;-0.20;99.90
10070;DHT22;5074;53.720;10.014;2022-12-10T13:37:10;-0.20;99.90
10070;DHT22;5074;53.720;10.014;2022-12-10T13:39:47;-0.30;99.90
10070;DHT22;5074;53.720;10.014;2022-12-10T13:42:28;-0.40;99.90
10070;DHT22;5074;53.720;10.014;2022-12-10T13:45:30;-0.40;99.90
10070;DHT22;5074;53.720;10.014;2022-12-10T13:48:17;-0.40;99.90
10070;DHT22;5074;53.720;10.014;2022-12-10T13:51:14;-0.40;99.90
10070;DHT22;5074;53.720;10.014;2022-12-10T13:54:00;-0.40;99.90
10070;DHT22;5074;53.720;10.014;2022-12-10T13:56:46;-0.50;99.90
10070;DHT22;5074;53.720;10.014;2022-12-10T13:59:26;-0.50;99.90
10070;DHT22;5074;53.720;10.014;2022-12-10T14:02:03;-0.50;99.90
10070;DHT22;5074;53.720;10.014;2022-12-10T14:05:11;-0.50;99.90
10070;DHT22;5074;53.720;10.014;2022-12-10T14:07:52;-0.50;99.90
10070;DHT22;5074;53.720;10.014;2022-12-10T14:10:24;-0.60;99.90
10070;DHT22;5074;53.720;10.014;2022-12-10T14:12:57;-0.50;99.90
10070;DHT22;5074;53.720;10.014;2022-12-10T14:15:26;-0.50;99.90
10070;DHT22;5074;53.720;10.014;2022-12-10T14:17:58;-0.50;99.90
10070;DHT22;5074;53.720;10.014;2022-12-10T14:20:29;-0.50;99.90
10070;DHT22;5074;53.720;10.014;2022-12-10T14:23:03;-0.60;99.90
10070;DHT22;5074;53.720;10.014;2022-12-10T14:26:03;-0.60;99.90
10070;DHT22;5074;53.720;10.014;2022-12-10T14:28:32;-0.70;99.90
10070;DHT22;5074;53.720;10.014;2022-12-10T14:31:07;-0.70;99.90
10070;DHT22;5074;53.720;10.014;2022-12-10T14:33:41;-0.80;99.90
10070;DHT22;5074;53.720;10.014;2022-12-10T14:36:14;-0.70;99.90
10070;DHT22;5074;53.720;10.014;2022-12-10T14:38:48;-0.70;99.90
10070;DHT22;5074;53.720;10.014;2022-12-10T14:41:18;-0.70;99.90
10070;DHT22;5074;53.720;10.014;2022-12-10T14:43:50;-0.70;99.90
10070;DHT22;5074;53.720;10.014;2022-12-10T14:46:20;-0.70;99.90
10070;DHT22;5074;53.720;10.014;2022-12-10T14:48:51;-0.70;99.90
10070;DHT22;5074;53.720;10.014;2022-12-10T14:51:22;-0.70;99.90
10070;DHT22;5074;53.720;10.014;2022-12-10T14:53:53;-0.70;99.90
10070;DHT22;5074;53.720;10.014;2022-12-10T14:56:24;-0.80;99.90
10070;DHT22;5074;53.720;10.014;2022-12-10T14:58:57;-0.90;99.90
10070;DHT22;5074;53.720;10.014;2022-12-10T15:01:32;-0.90;99.90
10070;DHT22;5074;53.720;10.014;2022-12-10T15:04:03;-0.80;99.90
10070;DHT22;5074;53.720;10.014;2022-12-10T15:06:34;-0.90;99.90
10070;DHT22;5074;53.720;10.014;2022-12-10T15:09:06;-0.90;99.90
10070;DHT22;5074;53.720;10.014;2022-12-10T15:11:43;-0.90;99.90
10070;DHT22;5074;53.720;10.014;2022-12-10T15:14:15;-1.00;99.90
10070;DHT22;5074;53.720;10.014;2022-12-10T15:16:46;-1.00;99.90
10070;DHT22;5074;53.720;10.014;2022-12-10T15:19:16;-1.00;99.90
10070;DHT22;5074;53.720;10.014;2022-12-10T15:21:48;-1.10;99.90
10070;DHT22;5074;53.720;10.014;2022-12-10T15:24:20;-1.00;99.90
10070;DHT22;5074;53.720;10.014;2022-12-10T15:26:53;-1.00;99.90
10070;DHT22;5074;53.720;10.014;2022-12-10T15:29:29;-1.10;99.90
10070;DHT22;5074;53.720;10.014;2022-12-10T15:32:01;-1.00;99.90
10070;DHT22;5074;53.720;10.014;2022-12-10T15:34:37;-1.00;99.90
10070;DHT22;5074;53.720;10.014;2022-12-10T15:37:19;-1.00;99.90
10070;DHT22;5074;53.720;10.014;2022-12-10T15:39:53;-1.00;99.90
10070;DHT22;5074;53.720;10.014;2022-12-10T15:42:39;-1.00;99.90
10070;DHT22;5074;53.720;10.014;2022-12-10T15:45:19;-1.00;99.90
10070;DHT22;5074;53.720;10.014;2022-12-10T15:47:49;-1.00;99.90
10070;DHT22;5074;53.720;10.014;2022-12-10T15:50:17;-0.90;99.90
10070;DHT22;5074;53.720;10.014;2022-12-10T15:52:46;-1.00;99.90
10070;DHT22;5074;53.720;10.014;2022-12-10T15:55:15;-1.00;99.90
10070;DHT22;5074;53.720;10.014;2022-12-10T15:57:44;-1.10;99.90
10070;DHT22;5074;53.720;10.014;2022-12-10T16:00:17;-1.10;99.90
10070;DHT22;5074;53.720;10.014;2022-12-10T16:02:48;-1.00;99.90
10070;DHT22;5074;53.720;10.014;2022-12-10T16:05:20;-1.00;99.90
10070;DHT22;5074;53.720;10.014;2022-12-10T16:07:50;-1.10;99.90
10070;DHT22;5074;53.720;10.014;2022-12-10T16:10:22;-1.10;99.90
10070;DHT22;5074;53.720;10.014;2022-12-10T16:12:53;-1.00;99.90
10070;DHT22;5074;53.720;10.014;2022-12-10T16:15:26;-1.10;99.90